Latest Weather Observations for Degrussa Aerodrome

IDW60801

Issued at 8:03 pm WST Thursday 22 June 2017 (issued every 30 minutes, with the page automatically refreshed every 10 minutes)

About weather observations | Map of weather stations | Latest weather observations for WA | Other Formats
Station Details ID: 507500 Name: DEGRUSSA AERODROME Lat: -25.56 Lon: 119.29 Height: 550.91 m
Data from the previous 72 hours. | See also: Recent months for locations in Western Australia
Date/Time
WST
Temp
°C
App
Temp
°C
Dew
Point
°C
Rel
Hum
%
Delta-T
°C
Wind Press
QNH
hPa
Press
MSL
hPa
Rain since
9am
mm
Dir  Spd
km/h
Gust
km/h
Spd
kts
Gust
kts
22/08:00pm 16.6 14.6 7.0 53 4.9 WSW 7 11 4 6 1019.4 1018.6 0.0
22/07:30pm 16.9 15.1 7.3 53 4.9 WSW 6 7 3 4 1019.3 1018.5 0.0
22/07:00pm 17.3 15.3 7.1 51 5.2 WSW 7 9 4 5 1018.9 1018.1 0.0
22/06:30pm 17.7 15.8 6.9 49 5.5 WNW 6 9 3 5 1018.4 1017.6 0.0
22/06:00pm 18.5 16.4 6.7 46 6.1 W 7 11 4 6 1018.2 1017.4 0.0
22/05:30pm 18.8 15.9 6.6 45 6.3 W 11 17 6 9 1018.1 1017.3 0.0
22/05:00pm 19.1 15.8 6.6 44 6.4 W 13 20 7 11 1017.9 1017.1 0.0
22/04:30pm 19.5 16.7 6.9 44 6.5 WNW 11 19 6 10 1017.9 1017.1 0.0
22/04:00pm 19.8 16.4 7.5 45 6.5 WNW 15 20 8 11 1017.8 1017.0 0.0
22/03:30pm 20.0 17.4 7.7 45 6.5 WNW 11 17 6 9 1017.7 1016.9 0.0
22/03:00pm 19.4 16.8 7.8 47 6.1 WNW 11 17 6 9 1017.7 1016.9 0.0
22/02:30pm 19.7 17.9 8.1 47 6.2 W 7 13 4 7 1017.3 1016.4 0.0
22/02:00pm 19.3 16.9 8.6 50 5.7 W 11 20 6 11 1018.1 1017.3 0.0
22/01:30pm 19.2 16.7 8.2 49 5.8 WSW 11 20 6 11 1018.3 1017.5 0.0
22/01:00pm 18.4 15.6 8.7 53 5.2 W 13 20 7 11 1018.5 1017.7 0.0
22/12:30pm 18.5 15.7 8.7 53 5.2 W 13 20 7 11 1018.8 1018.0 0.0
22/12:00pm 18.3 16.0 9.1 55 4.9 SW 11 17 6 9 1019.3 1018.5 0.0
22/11:30am 18.3 15.7 9.4 56 4.8 SW 13 20 7 11 1019.6 1018.8 0.0
22/11:00am 17.3 14.6 9.0 58 4.4 SW 13 20 7 11 1019.9 1019.1 0.0
22/10:30am 17.3 14.3 9.2 59 4.3 SW 15 22 8 12 1020.3 1019.5 0.0
22/10:00am 16.8 13.4 9.2 61 4.0 SSW 17 22 9 12 1020.5 1019.7 0.0
22/09:30am 16.0 12.3 9.4 65 3.5 SSW 19 24 10 13 1020.5 1019.7 0.0
22/09:00am 15.3 13.2 8.3 63 3.6 SW 9 15 5 8 1020.4 1019.6 0.0
22/08:30am 14.1 12.1 6.9 62 3.6 W 7 11 4 6 1020.4 1019.6 0.0
22/08:00am 13.5 11.6 6.6 63 3.4 W 6 9 3 5 1019.8 1019.0 0.0
22/07:30am 13.1 11.5 6.5 64 3.3 N 4 6 2 3 1018.8 1018.0 0.0
22/07:00am 12.7 11.1 6.3 65 3.1 NNE 4 6 2 3 1018.7 1017.9 0.0
22/06:30am 12.7 10.7 6.1 64 3.2 NE 6 11 3 6 1018.4 1017.6 0.0
22/06:00am 12.4 10.4 6.2 66 3.0 NNE 6 9 3 5 1018.4 1017.6 0.0
22/05:30am 12.9 10.9 6.3 64 3.2 NNE 6 7 3 4 1018.3 1017.5 0.0
22/05:00am 12.8 10.9 6.6 66 3.1 ENE 6 7 3 4 1018.1 1017.3 0.0
22/04:30am 12.7 10.7 6.3 65 3.1 NE 6 7 3 4 1018.2 1017.4 0.0
22/04:00am 12.4 10.5 6.5 67 2.9 N 6 6 3 3 1018.5 1017.7 0.0
22/03:30am 12.1 10.5 6.2 67 2.9 NNE 4 4 2 2 1018.3 1017.5 0.0
22/03:00am 12.0 11.1 5.9 66 2.9 CALM 0 6 0 3 1018.2 1017.4 0.0
22/02:30am 12.2 10.9 5.8 65 3.1 S 2 6 1 3 1018.3 1017.5 0.0
22/02:00am 13.5 11.2 5.7 59 3.8 SW 7 9 4 5 1018.4 1017.6 0.0
22/01:30am 12.5 10.3 5.4 62 3.4 WSW 6 6 3 3 1018.4 1017.6 0.0
22/01:00am 13.9 11.7 5.5 57 4.1 W 6 7 3 4 1018.3 1017.5 0.0
22/12:30am 14.9 12.2 5.4 53 4.6 W 9 11 5 6 1018.4 1017.6 0.0
22/12:00am 14.7 12.5 5.5 54 4.5 WNW 6 9 3 5 1018.4 1017.6 0.0
 
Date/Time
WST
Temp
°C
App
Temp
°C
Dew
Point
°C
Rel
Hum
%
Delta-T
°C
Wind Press
QNH
hPa
Press
MSL
hPa
Rain since
9am
mm
Dir  Spd
km/h
Gust
km/h
Spd
kts
Gust
kts
21/11:30pm 14.0 11.7 4.9 54 4.4 N 6 7 3 4 1018.3 1017.5 0.0
21/11:00pm 14.5 12.2 4.8 52 4.7 NNW 6 7 3 4 1018.4 1017.6 0.0
21/10:30pm 14.7 12.3 4.4 50 4.9 NNW 6 7 3 4 1018.5 1017.7 0.0
21/10:00pm 14.7 12.1 4.4 50 4.9 NNW 7 7 4 4 1018.5 1017.7 0.0
21/09:30pm 15.4 12.8 4.2 47 5.4 NNW 7 7 4 4 1018.4 1017.6 0.0
21/09:00pm 16.0 13.3 3.8 44 5.8 NW 7 7 4 4 1018.3 1017.5 0.0
21/08:30pm 17.0 14.4 3.3 40 6.5 NW 6 6 3 3 1018.2 1017.4 0.0
21/08:00pm 18.0 15.3 2.7 36 7.2 NW 6 7 3 4 1018.0 1017.2 0.0
21/07:30pm 18.7 15.9 2.9 35 7.5 WNW 7 9 4 5 1017.8 1017.0 0.0
21/07:00pm 19.5 16.9 3.2 34 7.9 NW 6 7 3 4 1017.6 1016.8 0.0
21/06:30pm 20.2 17.6 3.4 33 8.2 WNW 6 7 3 4 1017.2 1016.3 0.0
21/06:00pm 21.2 18.2 3.9 32 8.6 WNW 9 17 5 9 1016.8 1016.0 0.0
21/05:30pm 22.2 19.0 3.3 29 9.3 NNW 9 13 5 7 1016.3 1015.5 0.0
21/05:00pm 23.2 19.3 3.2 27 9.9 NNW 13 20 7 11 1016.1 1015.3 0.0
21/04:30pm 24.2 19.5 2.9 25 10.6 NW 17 22 9 12 1016.0 1015.2 0.0
21/04:00pm 24.5 20.2 3.2 25 10.6 NNW 15 20 8 11 1016.0 1015.2 0.0
21/03:30pm 24.6 20.3 3.3 25 10.7 NNW 15 24 8 13 1016.0 1015.2 0.0
21/03:00pm 24.9 19.8 3.0 24 10.9 NNW 19 28 10 15 1016.0 1015.2 0.0
21/02:30pm 24.1 18.7 2.3 24 10.7 NNW 20 28 11 15 1016.0 1015.2 0.0
21/02:00pm 24.0 18.9 3.3 26 10.3 N 19 26 10 14 1016.3 1015.5 0.0
21/01:30pm 23.8 18.5 3.2 26 10.3 N 20 32 11 17 1016.4 1015.6 0.0
21/01:00pm 24.3 18.7 3.6 26 10.4 N 22 28 12 15 1016.9 1016.1 0.0
21/12:30pm 23.6 18.6 3.5 27 10.0 N 19 26 10 14 1017.5 1016.7 0.0
21/12:00pm 22.2 17.0 3.3 29 9.3 N 20 30 11 16 1018.1 1017.3 0.0
21/11:30am 21.0 15.7 2.8 30 8.8 N 20 32 11 17 1018.8 1018.0 0.0
21/11:00am 21.2 15.9 3.0 30 8.8 NNE 20 32 11 17 1019.2 1018.4 0.0
21/10:30am 19.7 14.0 2.6 32 8.2 NNE 22 32 12 17 1019.5 1018.7 0.0
21/10:00am 19.1 13.6 2.0 32 8.0 NNE 20 30 11 16 1019.6 1018.8 0.0
21/09:30am 18.9 14.0 2.3 33 7.8 NNE 17 26 9 14 1019.8 1019.0 0.0
21/09:00am 17.7 12.5 2.5 36 7.1 NNE 19 26 10 14 1019.8 1019.0 0.0
21/08:30am 16.9 13.3 2.9 39 6.6 NE 11 19 6 10 1019.6 1018.8 0.0
21/08:00am 15.0 12.2 2.9 44 5.6 NE 7 9 4 5 1019.5 1018.7 0.0
21/07:30am 15.0 12.2 2.9 44 5.6 NE 7 11 4 6 1019.1 1018.3 0.0
21/07:00am 15.0 11.8 2.9 44 5.6 NE 9 13 5 7 1018.8 1018.0 0.0
21/06:30am 15.1 11.9 3.0 44 5.6 NE 9 13 5 7 1018.8 1018.0 0.0
21/06:00am 15.5 11.5 2.7 42 5.9 NE 13 17 7 9 1018.3 1017.5 0.0
21/05:30am 15.6 12.0 2.7 42 6.0 NE 11 17 6 9 1018.4 1017.6 0.0
21/05:00am 15.8 11.8 2.6 41 6.1 NE 13 17 7 9 1018.2 1017.4 0.0
21/04:30am 16.1 12.0 2.5 40 6.3 NE 13 17 7 9 1018.3 1017.5 0.0
21/04:00am 16.3 12.6 2.3 39 6.5 NE 11 15 6 8 1018.5 1017.7 0.0
21/03:30am 16.5 12.4 2.5 39 6.5 NE 13 17 7 9 1018.4 1017.6 0.0
21/03:00am 16.8 12.7 2.4 38 6.7 NE 13 15 7 8 1018.6 1017.8 0.0
21/02:30am 16.8 12.7 2.0 37 6.8 NE 13 19 7 10 1018.5 1017.7 0.0
21/02:00am 16.5 12.4 2.2 38 6.6 ENE 13 19 7 10 1018.4 1017.6 0.0
21/01:30am 16.5 12.8 2.2 38 6.6 ENE 11 17 6 9 1018.5 1017.7 0.0
21/01:00am 17.0 12.4 1.4 35 7.1 ENE 15 20 8 11 1019.1 1018.3 0.0
21/12:30am 16.3 12.5 2.0 38 6.6 ENE 11 13 6 7 1019.4 1018.6 0.0
21/12:00am 15.3 12.4 2.8 43 5.8 E 7 11 4 6 1019.7 1018.9 0.0
 
Date/Time
WST
Temp
°C
App
Temp
°C
Dew
Point
°C
Rel
Hum
%
Delta-T
°C
Wind Press
QNH
hPa
Press
MSL
hPa
Rain since
9am
mm
Dir  Spd
km/h
Gust
km/h
Spd
kts
Gust
kts
20/11:30pm 16.0 12.8 2.8 41 6.2 ESE 9 11 5 6 1019.8 1019.0 0.0
20/11:00pm 16.5 13.2 2.5 39 6.5 E 9 11 5 6 1019.8 1019.0 0.0
20/10:30pm 16.1 12.9 3.2 42 6.1 E 9 13 5 7 1019.9 1019.1 0.0
20/10:00pm 16.2 13.4 3.3 42 6.1 E 7 9 4 5 1019.9 1019.1 0.0
20/09:30pm 16.7 13.5 3.1 40 6.4 ESE 9 11 5 6 1019.9 1019.1 0.0
20/09:00pm 17.1 14.4 3.8 41 6.4 E 7 7 4 4 1020.0 1019.2 0.0
20/08:30pm 17.7 14.8 2.5 36 7.1 E 7 9 4 5 1019.7 1018.9 0.0
20/08:00pm 17.8 14.6 2.9 37 7.0 E 9 9 5 5 1019.7 1018.9 0.0
20/07:30pm 18.2 15.0 2.9 36 7.3 E 9 9 5 5 1019.6 1018.8 0.0
20/07:00pm 19.2 15.8 2.1 32 8.0 E 9 11 5 6 1019.4 1018.6 0.0
20/06:30pm 19.0 16.3 3.6 36 7.5 ENE 7 9 4 5 1019.2 1018.4 0.0
20/06:00pm 20.0 17.1 2.8 32 8.3 E 7 9 4 5 1018.9 1018.1 0.0
20/05:30pm 20.6 18.1 1.5 28 9.0 E 4 6 2 3 1018.6 1017.8 0.0
20/05:00pm 21.8 19.2 0.9 25 9.8 NW 4 6 2 3 1018.2 1017.4 0.0
20/04:30pm 22.1 19.8 0.6 24 10.1 SSW 2 6 1 3 1018.2 1017.4 0.0
20/04:00pm 22.6 19.6 1.0 24 10.2 WNW 6 7 3 4 1018.1 1017.3 0.0
20/03:30pm 22.8 20.2 1.2 24 10.3 E 4 7 2 4 1018.0 1017.2 0.0
20/03:00pm 23.1 20.0 1.5 24 10.3 W 7 13 4 7 1018.2 1017.4 0.0
20/02:30pm 22.7 18.8 1.1 24 10.3 WSW 11 17 6 9 1018.5 1017.7 0.0
20/02:00pm 22.6 19.4 1.0 24 10.2 SW 7 15 4 8 1018.7 1017.9 0.0
20/01:30pm 22.2 19.3 1.3 25 9.9 WSW 6 15 3 8 1018.7 1017.9 0.0
20/01:00pm 22.0 18.9 1.1 25 9.9 WSW 7 17 4 9 1018.9 1018.1 0.0
20/12:30pm 21.9 18.7 1.0 25 9.8 ENE 7 13 4 7 1019.5 1018.7 0.0
20/12:00pm 21.3 17.7 0.5 25 9.6 NNE 9 19 5 10 1020.1 1019.3 0.0
20/11:30am 21.6 18.0 0.8 25 9.7 NNE 9 17 5 9 1020.7 1020.0 0.0
20/11:00am 21.2 16.8 0.4 25 9.6 NNE 13 24 7 13 1021.2 1020.4 0.0
20/10:30am 20.6 15.5 1.0 27 9.1 NE 17 26 9 14 1021.4 1020.6 0.0
20/10:00am 19.7 15.0 1.2 29 8.6 NE 15 22 8 12 1021.7 1020.9 0.0
20/09:30am 18.5 14.7 1.9 33 7.8 NE 11 17 6 9 1021.8 1021.0 0.0
20/09:00am 16.7 13.3 2.0 37 6.8 NE 9 17 5 9 1021.8 1021.0 0.0
20/08:30am 14.3 11.0 2.2 44 5.5 ENE 9 15 5 8 1021.6 1020.8 0.0
20/08:00am 11.2 8.5 2.5 55 3.9 E 6 7 3 4 1021.6 1020.8 0.0
20/07:30am 9.7 6.9 2.3 60 3.2 ESE 6 9 3 5 1021.4 1020.6 0.0
20/07:00am 8.5 5.7 2.1 64 2.7 ESE 6 7 3 4 1021.3 1020.5 0.0
20/06:30am 9.0 6.0 2.1 62 3.0 E 7 11 4 6 1020.8 1020.1 0.0
20/06:00am 9.3 5.9 1.9 60 3.2 E 9 13 5 7 1020.4 1019.6 0.0
20/05:30am 9.8 6.4 1.9 58 3.4 E 9 13 5 7 1020.2 1019.4 0.0
20/05:00am 10.2 6.5 2.1 57 3.5 E 11 15 6 8 1020.1 1019.3 0.0
20/04:30am 10.2 6.1 2.1 57 3.5 E 13 17 7 9 1019.9 1019.1 0.0
20/04:00am 10.6 6.4 1.9 55 3.8 E 13 17 7 9 1020.0 1019.2 0.0
20/03:30am 10.9 7.1 2.0 54 3.9 ESE 11 13 6 7 1020.3 1019.5 0.0
20/03:00am 11.4 7.2 1.9 52 4.2 E 13 17 7 9 1020.1 1019.3 0.0
20/02:30am 11.6 7.5 2.1 52 4.2 E 13 17 7 9 1020.3 1019.5 0.0
20/02:00am 12.0 7.5 2.2 51 4.4 E 15 19 8 10 1020.6 1019.9 0.0
20/01:30am 12.8 8.3 2.1 48 4.8 E 15 19 8 10 1021.1 1020.3 0.0
20/01:00am 13.3 8.7 1.6 45 5.2 E 15 19 8 10 1021.2 1020.4 0.0
20/12:30am 13.6 10.2 1.6 44 5.3 E 9 13 5 7 1021.3 1020.5 0.0
20/12:00am 14.2 10.4 1.5 42 5.7 E 11 15 6 8 1021.4 1020.6 0.0
 
Date/Time
WST
Temp
°C
App
Temp
°C
Dew
Point
°C
Rel
Hum
%
Delta-T
°C
Wind Press
QNH
hPa
Press
MSL
hPa
Rain since
9am
mm
Dir  Spd
km/h
Gust
km/h
Spd
kts
Gust
kts
19/11:30pm 15.1 10.9 1.6 40 6.1 E 13 17 7 9 1021.5 1020.7 0.0
19/11:00pm 14.6 10.4 1.8 42 5.8 E 13 19 7 10 1021.6 1020.8 0.0
19/10:30pm 13.9 10.6 2.5 46 5.2 E 9 11 5 6 1021.7 1020.9 0.0
19/10:00pm 15.1 11.0 2.0 41 5.9 E 13 19 7 10 1021.9 1021.1 0.0
19/09:30pm 15.0 11.3 2.5 43 5.7 ESE 11 13 6 7 1022.0 1021.2 0.0
19/09:00pm 15.4 12.1 2.6 42 5.9 ESE 9 13 5 7 1022.2 1021.5 0.0
19/08:30pm 15.9 12.6 2.7 41 6.1 ESE 9 13 5 7 1022.1 1021.3 0.0

Other Formats:

Comma delimited format used in spreadsheet applications
http://www.bom.gov.au/fwo/IDW60801/IDW60801.99400.axf

JavaScript Object Notation format (JSON) in row-major order
http://www.bom.gov.au/fwo/IDW60801/IDW60801.99400.json